CYVL

Colville Lake / Tommy Kochon Airport

Colville Lake, Northwest Territories, Canada
METAR CYVL 211959Z AUTO 04005KT 3SM -SN OVC018 M21/M23 A3005 RMK ICG PAST HR SLP216
Observed Flight Rules
Jan-21 @ 19:59 UTC (21 minutes ago) Marginal Visual Flight Rules
Wind Visibility Clouds Conditions
40° at 5 knots 3 miles
  • Overcast at 1,800' AGL
  • Light Snow
Temperatures Readings
Current -21°C / -6°F
Dewpoint -23°C / -9°F
Humidity 84%
Altimeter 30.05" Hg
Pressure 1021.6 hPa
Elevation 259
METAR CYVL 211959Z AUTO 04005KT 3SM -SN OVC018 M21/M23 A3005 RMK ICG PAST HR SLP216
Observed Flight Rules
Jan-21 @ 19:59 UTC
(21 minutes ago)
MVFR
Wind Visibility
40° at 5 knots 3 miles
Clouds
  • Overcast at 1,800' AGL
Conditions
  • Light Snow
Temperature Dewpoint
-21°C / -6°F -23°C / -9°F
Humidity Altimeter Pressure
84% 30.05" Hg 1021.6 hPa